Latest Weather Observations for Hartz Mountains

IDT60801

Issued at 5:02 pm EST Saturday 22 September 2018 (issued every 10 minutes, with the page automatically refreshed every 10 minutes)

About weather observations | Map of weather stations | Latest weather observations for TAS | Other Formats
Station Details ID: 094191 Name: HARTZ MOUNTAIN (KEOGHS PIMPLE) Lat: -43.20 Lon: 146.77 Height: 831.0 m
Data from the previous 72 hours. | See also: Recent months at Hartz Mountains
Date/Time
EST
Temp
°C
App
Temp
°C
Dew
Point
°C
Rel
Hum
%
Delta-T
°C
Wind Press
QNH
hPa
Press
MSL
hPa
Rain since
9am
mm
Dir  Spd
km/h
Gust
km/h
Spd
kts
Gust
kts
22/05:00pm 2.8 -2.9 2.7 99 0.0 W 22 46 12 25 - - 1.2
22/04:30pm 2.7 -5.0 2.4 98 0.1 W 32 54 17 29 - - 1.2
22/04:00pm 3.3 -3.5 3.2 99 0.0 W 28 54 15 29 - - 1.2
22/03:30pm 3.7 -3.0 3.6 99 0.0 W 28 46 15 25 - - 1.0
22/03:00pm 4.3 -2.3 4.2 99 0.0 W 28 50 15 27 - - 1.0
22/02:31pm 4.5 -2.1 4.4 99 0.0 WSW 28 48 15 26 - - 0.6
22/02:30pm 4.5 -1.7 4.4 99 0.0 WSW 26 46 14 25 - - 0.6
22/02:00pm 4.5 -3.0 4.2 98 0.1 WSW 33 56 18 30 - - 0.4
22/01:34pm 5.4 -3.1 5.1 98 0.1 W 39 61 21 33 - - 0.4
22/01:31pm 5.6 -3.3 5.3 98 0.1 W 41 61 22 33 - - 0.4
22/01:30pm 5.7 -3.1 5.4 98 0.1 W 41 61 22 33 - - 0.4
22/01:00pm 6.0 -2.8 5.7 98 0.1 WNW 41 65 22 35 - - 0.2
22/12:30pm 6.0 -3.7 5.7 98 0.1 W 46 67 25 36 - - 0.0
22/12:00pm 5.8 -4.4 5.2 96 0.3 WNW 48 74 26 40 - - 0.0
22/11:30am 6.1 -2.4 5.2 94 0.4 WNW 39 67 21 36 - - 0.0
22/11:00am 6.0 -2.1 5.3 95 0.3 WNW 37 63 20 34 - - 0.0
22/10:30am 5.8 -1.6 5.1 95 0.3 WNW 33 57 18 31 - - 0.0
22/10:00am 5.7 -2.1 5.1 96 0.3 WNW 35 59 19 32 - - 0.0
22/09:30am 5.4 -1.5 4.7 95 0.3 WNW 30 54 16 29 - - 0.0
22/09:00am 5.2 -2.7 4.3 94 0.4 WNW 35 54 19 29 - - 0.2
22/08:30am 4.9 -4.2 4.0 94 0.4 WNW 41 61 22 33 - - 0.2
22/08:00am 4.6 -3.4 3.9 95 0.3 NW 35 57 19 31 - - 0.2
22/07:31am 4.5 -2.2 3.6 94 0.4 WNW 28 46 15 25 - - 0.2
22/07:30am 4.5 -2.6 3.6 94 0.4 WNW 30 46 16 25 - - 0.2
22/07:00am 4.5 -2.2 3.5 93 0.4 WNW 28 50 15 27 - - 0.2
22/06:59am 4.6 -2.1 3.6 93 0.4 WNW 28 50 15 27 - - 0.2
22/06:30am 4.4 -1.2 3.5 94 0.4 WNW 22 39 12 21 - - 0.2
22/06:00am 4.5 -0.7 3.5 93 0.4 NW 20 35 11 19 - - 0.2
22/05:30am 4.4 -0.9 3.2 92 0.5 WNW 20 32 11 17 - - 0.2
22/05:19am 4.4 0.4 3.1 91 0.6 WNW 13 41 7 22 - - 0.0
22/05:00am 4.4 0.8 2.9 90 0.6 WNW 11 19 6 10 - - 0.0
22/04:30am 4.3 -0.8 3.0 91 0.6 W 19 35 10 19 - - 0.0
22/04:00am 4.3 0.0 3.3 93 0.4 WNW 15 20 8 11 - - 0.0
22/03:30am 4.3 -0.4 3.1 92 0.5 W 17 26 9 14 - - 0.0
22/03:00am 3.9 -1.5 2.7 92 0.5 W 20 30 11 16 - - 0.0
22/02:30am 3.9 -2.2 2.6 91 0.6 W 24 33 13 18 - - 0.0
22/02:00am 3.9 -2.2 2.6 91 0.6 W 24 33 13 18 - - 0.0
22/01:30am 3.7 -3.2 2.4 91 0.5 W 28 35 15 19 - - 0.0
22/01:00am 4.0 -3.9 2.5 90 0.6 W 33 43 18 23 - - 0.0
22/12:30am 4.0 -4.2 2.5 90 0.6 W 35 48 19 26 - - 0.0
22/12:00am 3.9 -4.3 2.6 91 0.6 W 35 44 19 24 - - 0.0
 
Date/Time
EST
Temp
°C
App
Temp
°C
Dew
Point
°C
Rel
Hum
%
Delta-T
°C
Wind Press
QNH
hPa
Press
MSL
hPa
Rain since
9am
mm
Dir  Spd
km/h
Gust
km/h
Spd
kts
Gust
kts
21/11:43pm 3.9 -4.3 2.6 91 0.6 WNW 35 54 19 29 - - 0.0
21/11:30pm 3.9 -3.7 2.7 92 0.5 W 32 46 17 25 - - 0.0
21/11:00pm 3.8 -2.7 2.6 92 0.5 W 26 35 14 19 - - 0.0
21/10:30pm 3.9 -2.6 2.7 92 0.5 W 26 43 14 23 - - 0.0
21/10:00pm 3.9 -3.0 2.7 92 0.5 W 28 39 15 21 - - 0.0
21/09:30pm 3.9 -3.7 2.7 92 0.5 WNW 32 43 17 23 - - 0.0
21/09:00pm 3.9 -3.7 2.7 92 0.5 WNW 32 43 17 23 - - 0.0
21/08:30pm 4.0 -3.8 2.8 92 0.5 WNW 33 44 18 24 - - 0.0
21/08:00pm 4.3 -4.2 3.1 92 0.5 WNW 37 44 20 24 - - 0.0
21/07:30pm 4.6 -3.9 3.3 91 0.6 WNW 37 50 20 27 - - 0.0
21/07:00pm 4.8 -3.7 3.1 89 0.7 WNW 37 50 20 27 - - 0.0
21/06:30pm 5.2 -4.4 3.2 87 0.9 W 43 54 23 29 - - 0.0
21/06:00pm 5.5 -3.7 3.3 86 1.0 W 41 54 22 29 - - 0.0
21/05:30pm 6.1 -3.4 3.8 85 1.0 WNW 43 56 23 30 - - 0.0
21/05:00pm 6.9 -2.1 4.7 86 1.0 WNW 41 63 22 34 - - 0.0
21/04:43pm 7.1 -1.9 4.4 83 1.2 WNW 41 59 22 32 - - 0.0
21/04:30pm 7.3 -0.8 5.1 86 1.0 WNW 37 46 20 25 - - 0.0
21/04:00pm 7.8 -0.3 5.3 84 1.2 WNW 37 50 20 27 - - 0.0
21/03:33pm 9.0 0.3 5.9 81 1.5 WNW 41 59 22 32 - - 0.0
21/03:30pm 8.3 -1.0 4.9 79 1.6 WNW 43 59 23 32 - - 0.0
21/03:00pm 9.4 0.2 5.4 76 1.9 W 43 61 23 33 - - 0.0
21/02:30pm 9.1 -1.2 4.7 74 2.1 WNW 48 69 26 37 - - 0.0
21/02:10pm 9.6 -0.2 5.4 75 2.0 WNW 46 67 25 36 - - 0.0
21/02:00pm 9.4 0.0 5.4 76 1.9 W 44 57 24 31 - - 0.0
21/01:34pm 9.1 -0.6 6.0 81 1.5 W 46 65 25 35 - - 0.0
21/01:30pm 8.8 -1.8 5.2 78 1.7 W 50 65 27 35 - - 0.0
21/01:12pm 8.5 -1.6 5.6 82 1.4 W 48 67 26 36 - - 0.0
21/01:00pm 7.9 -2.6 5.7 86 1.0 W 50 65 27 35 - - 0.0
21/12:30pm 8.7 -0.8 6.5 86 1.1 W 46 65 25 35 - - 0.0
21/12:00pm 6.8 -2.5 5.7 93 0.5 W 44 69 24 37 - - 0.0
21/11:30am 6.8 -0.9 5.4 91 0.7 W 35 54 19 29 - - 0.0
21/11:00am 6.5 -3.0 4.8 89 0.8 WNW 44 67 24 36 - - 0.0
21/10:30am 6.0 -4.0 4.3 89 0.8 W 46 65 25 35 - - 0.0
21/10:00am 5.8 -4.6 4.4 91 0.6 W 48 69 26 37 - - 0.0
21/09:30am 5.4 -6.5 4.2 92 0.5 W 56 76 30 41 - - 0.0
21/09:00am 5.2 -5.2 4.0 92 0.5 W 48 69 26 37 - - 0.0
21/08:35am 5.2 -5.3 3.9 91 0.6 W 48 67 26 36 - - 0.0
21/08:30am 5.4 -5.4 4.1 91 0.6 W 50 63 27 34 - - 0.0
21/08:04am 5.0 -6.2 4.0 93 0.4 W 52 70 28 38 - - 0.0
21/08:00am 5.0 -6.2 4.0 93 0.4 W 52 67 28 36 - - 0.0
21/07:30am 4.7 -5.3 4.3 97 0.2 W 46 70 25 38 - - 0.0
21/07:00am 4.4 -6.4 4.3 99 0.0 WSW 50 70 27 38 - - 0.0
21/06:30am 4.4 -7.5 4.1 98 0.1 W 56 76 30 41 - - 0.0
21/06:00am 4.3 -7.3 4.0 98 0.1 WSW 54 72 29 39 - - 0.0
21/05:30am 4.5 -6.7 4.2 98 0.1 WSW 52 74 28 40 - - 0.0
21/05:00am 4.7 -5.3 4.4 98 0.1 W 46 65 25 35 - - 0.0
21/04:30am 4.7 -6.1 4.3 97 0.2 W 50 74 27 40 - - 0.0
21/04:00am 4.8 -7.2 4.5 98 0.1 W 57 83 31 45 - - 0.0
21/03:30am 4.9 -6.2 4.6 98 0.1 W 52 78 28 42 - - 0.0
21/03:00am 4.9 -5.4 4.5 97 0.2 W 48 70 26 38 - - 0.0
21/02:30am 4.9 -5.5 4.3 96 0.3 W 48 69 26 37 - - 0.0
21/02:00am 4.8 -4.2 4.4 97 0.2 W 41 59 22 32 - - 0.0
21/01:30am 4.9 -3.4 4.3 96 0.3 W 37 57 20 31 - - 0.0
21/01:00am 4.6 -2.8 4.0 96 0.3 W 32 59 17 32 - - 0.0
21/12:30am 4.5 -4.1 4.4 99 0.0 W 39 59 21 32 - - 0.0
21/12:00am 4.7 -3.5 4.6 99 0.0 WSW 37 57 20 31 - - 0.0
 
Date/Time
EST
Temp
°C
App
Temp
°C
Dew
Point
°C
Rel
Hum
%
Delta-T
°C
Wind Press
QNH
hPa
Press
MSL
hPa
Rain since
9am
mm
Dir  Spd
km/h
Gust
km/h
Spd
kts
Gust
kts
20/11:30pm 4.6 -4.4 4.5 99 0.0 W 41 61 22 33 - - 0.0
20/11:00pm 4.7 -6.4 4.6 99 0.0 W 52 78 28 42 - - 0.0
20/10:30pm 4.7 -5.2 4.6 99 0.0 W 46 67 25 36 - - 0.0
20/10:00pm 4.7 -5.6 4.6 99 0.0 WSW 48 74 26 40 - - 0.0
20/09:30pm 4.8 -7.2 4.7 99 0.0 WSW 57 76 31 41 - - 0.0
20/09:00pm 4.8 -8.7 4.7 99 0.0 WSW 65 87 35 47 - - 0.0
20/08:30pm 4.8 -6.6 4.7 99 0.0 W 54 72 29 39 - - 0.0
20/08:00pm 4.8 -5.1 4.7 99 0.0 W 46 67 25 36 - - 0.0
20/07:30pm 4.8 -4.7 4.7 99 0.0 W 44 65 24 35 - - 0.0
20/07:00pm 4.8 -4.2 4.7 99 0.0 W 41 63 22 34 - - 0.0
20/06:33pm 4.7 -4.3 4.4 98 0.1 W 41 63 22 34 - - 0.0
20/06:30pm 4.7 -4.3 4.4 98 0.1 WNW 41 57 22 31 - - 0.0
20/06:00pm 4.7 -4.3 4.4 98 0.1 W 41 72 22 39 - - 0.0
20/05:30pm 4.7 -4.3 4.3 97 0.2 WNW 41 59 22 32 - - 0.0
20/05:00pm 4.7 -4.9 4.3 97 0.2 WNW 44 65 24 35 - - 0.0
20/04:30pm 4.8 -4.3 4.1 95 0.3 W 41 67 22 36 - - 0.0
20/04:00pm 4.7 -5.4 4.0 95 0.3 W 46 74 25 40 - - 0.0
20/03:30pm 5.0 -4.5 4.1 94 0.4 WNW 43 67 23 36 - - 0.0
20/03:00pm 5.3 -3.8 4.0 91 0.6 W 41 67 22 36 - - 0.0
20/02:30pm 5.6 -3.9 3.8 88 0.8 WNW 43 61 23 33 - - 0.0
20/02:00pm 5.6 -2.8 3.9 89 0.8 W 37 57 20 31 - - 0.0
20/01:30pm 5.3 -4.8 4.0 91 0.6 WNW 46 69 25 37 - - 0.0
20/01:00pm 5.2 -4.2 4.2 93 0.4 WNW 43 61 23 33 - - 0.0
20/12:30pm 4.8 -3.9 3.9 94 0.4 W 39 54 21 29 - - 0.0
20/12:00pm 5.2 -4.2 4.5 95 0.3 WNW 43 72 23 39 - - 0.0
20/11:30am 4.5 -5.0 3.9 96 0.3 W 43 63 23 34 - - 0.0
20/11:00am 3.9 -4.2 3.2 95 0.3 W 35 69 19 37 - - 0.0
20/10:34am 3.8 -6.5 2.8 93 0.4 WSW 46 69 25 37 - - 0.0
20/10:30am 3.8 -6.1 2.8 93 0.4 WSW 44 61 24 33 - - 0.0
20/10:03am 3.8 -7.6 2.6 92 0.5 W 52 72 28 39 - - 0.0
20/10:00am 3.8 -7.3 2.6 92 0.5 W 50 67 27 36 - - 0.0
20/09:52am 4.2 -7.2 2.9 91 0.6 WSW 52 70 28 38 - - 0.0
20/09:46am 3.9 -7.2 2.7 92 0.5 WSW 50 70 27 38 - - 0.0
20/09:30am 3.2 -5.8 2.2 93 0.4 W 39 65 21 35 - - 0.0
20/09:00am 2.7 -7.1 2.0 95 0.3 W 43 67 23 36 - - 2.4
20/08:30am 3.3 -6.4 2.9 97 0.2 W 43 65 23 35 - - 2.4
20/08:00am 2.0 -9.2 1.6 97 0.2 W 50 72 27 39 - - 2.4
20/07:30am 1.8 -8.1 1.4 97 0.2 W 43 63 23 34 - - 2.4
20/07:07am 1.8 -8.7 1.4 97 0.2 W 46 65 25 35 - - 2.4
20/07:00am 1.4 -9.6 1.0 97 0.2 W 48 61 26 33 - - 2.4
20/06:30am 1.2 -7.7 0.5 95 0.3 W 37 61 20 33 - - 2.4
20/06:00am 1.0 -9.2 0.9 99 0.0 W 44 72 24 39 - - 2.4
20/05:30am 1.0 -9.3 0.6 97 0.2 W 44 70 24 38 - - 2.4
20/05:04am 0.8 -8.5 0.4 97 0.2 W 39 57 21 31 - - 2.4
20/05:00am 0.8 -8.9 0.5 98 0.1 W 41 57 22 31 - - 2.4
20/04:30am 0.8 -9.8 0.5 98 0.1 W 46 65 25 35 - - 2.4
20/04:01am 0.6 -9.5 0.2 97 0.2 W 43 65 23 35 - - 2.4
20/04:00am 0.6 -9.1 0.2 97 0.2 W 41 56 22 30 - - 2.4
20/03:30am 0.6 -9.1 0.2 97 0.2 W 41 59 22 32 - - 2.4
20/03:06am 0.6 -9.2 -0.1 95 0.3 W 41 59 22 32 - - 2.4
20/03:00am 0.6 -9.6 -0.1 95 0.3 WSW 43 59 23 32 - - 2.4
20/02:30am 0.4 -8.2 0.0 97 0.2 W 35 54 19 29 - - 2.4
20/02:00am 0.3 -10.1 -0.1 97 0.2 W 44 69 24 37 - - 2.4
20/01:30am 0.2 -9.6 -0.4 96 0.2 W 41 65 22 35 - - 2.4
20/01:00am -0.1 -8.5 -0.9 94 0.3 W 33 54 18 29 - - 2.4
20/12:30am 0.1 -8.1 -0.9 93 0.4 W 32 50 17 27 - - 2.4
20/12:00am 0.0 -8.2 -1.0 93 0.4 W 32 50 17 27 - - 2.4
 
Date/Time
EST
Temp
°C
App
Temp
°C
Dew
Point
°C
Rel
Hum
%
Delta-T
°C
Wind Press
QNH
hPa
Press
MSL
hPa
Rain since
9am
mm
Dir  Spd
km/h
Gust
km/h
Spd
kts
Gust
kts
19/11:31pm 0.1 -7.3 -0.7 94 0.3 W 28 48 15 26 - - 2.4
19/11:30pm 0.1 -7.3 -0.7 94 0.3 W 28 39 15 21 - - 2.4
19/11:08pm 0.1 -7.3 -0.7 94 0.3 W 28 46 15 25 - - 2.4
19/11:00pm 0.1 -7.7 -0.7 94 0.3 W 30 44 16 24 - - 2.4
19/10:30pm 0.0 -8.4 -1.0 93 0.4 W 33 46 18 25 - - 2.4
19/10:25pm 0.2 -7.2 -0.8 93 0.4 W 28 46 15 25 - - 2.4
19/10:00pm 0.1 -7.0 -1.0 92 0.4 W 26 39 14 21 - - 2.4
19/09:30pm 0.2 -4.8 -0.9 92 0.4 W 15 26 8 14 - - 2.4
19/09:00pm 0.3 -8.9 -1.3 89 0.6 WSW 37 50 20 27 - - 2.4
19/08:45pm 0.5 -7.9 -0.9 90 0.6 WSW 33 52 18 28 - - 2.4
19/08:30pm 0.6 -9.0 -1.2 88 0.7 WSW 39 52 21 28 - - 2.4
19/08:00pm 0.4 -8.0 -1.0 90 0.5 WSW 33 52 18 28 - - 2.4
19/07:44pm 0.4 -7.0 -0.9 91 0.5 WSW 28 48 15 26 - - 2.4
19/07:30pm 0.2 -6.9 -1.1 91 0.5 WSW 26 41 14 22 - - 2.4
19/07:12pm 0.3 -7.1 -1.0 91 0.5 W 28 46 15 25 - - 2.4
19/07:00pm 0.2 -6.9 -0.9 92 0.4 W 26 35 14 19 - - 2.4
19/06:30pm 0.5 -6.5 -0.2 95 0.3 WSW 26 39 14 21 - - 2.2
19/06:00pm 0.6 -6.8 -0.4 93 0.4 WSW 28 46 15 25 - - 2.2
19/05:30pm 1.5 -5.2 -1.1 83 1.0 WSW 24 33 13 18 - - 2.2

Other Formats:

Comma delimited format used in spreadsheet applications
http://www.bom.gov.au/fwo/IDT60801/IDT60801.94977.axf

JavaScript Object Notation format (JSON) in row-major order
http://www.bom.gov.au/fwo/IDT60801/IDT60801.94977.json